Ramenskoe, Russia
Current Conditions -  °F | °C
As of 9:00 PM on Friday 24 Oct 2014 (Local Time) from UUDD Reporting Station
Clear Clear  
Wind Chill: 10°   Ceiling: Unl
Heat Index: 21°   Visibility: 6mi
Dew Point: 12°   Wind: 11mph
Humidity: 68%   Direction: 20°NNE
Pressure: 30.59"   Gusts: NA
Location:  55.58°N, 38.19°E
Report Text: UUDD 241800Z 02005MPS CAVOK M06/M11 Q1036 32010095 82010095NOSIG
Loading
Personal Weather Stations






























Interactive Weather Map
Tropical Storm Tracking
New forecast layout! Learn more

10-Day Weather Forecast

Advertisements
Track Severe Weather on mobile